KVKS/VKS METAR and TAF weather

Enter ICAO airport designator
Station Type Date Time Source
KVKS METAR 2021/01/17 19:55 UTC NOAA

KVKS 171955Z AUTO 31012KT 10SM CLR 16/M02 A2996 RMK A01


Station Type Date Time Source
KVKS Decoded METAR 2021/01/17 19:55 UTC NOAA

Vicksburg Municipal, MS, United States (KVKS) 32-14N 090-56W
Jan 17, 2021 - 02:55 PM EST / 2021.01.17 1955 UTC
Wind: from the NW (310 degrees) at 14 MPH (12 KT):0
Visibility: 10 mile(s):0
Sky conditions: clear
Temperature: 60 F (16 C)
Dew Point: 28 F (-2 C)
Relative Humidity: 29%
Pressure (altimeter): 29.96 in. Hg (1014 hPa)
ob: KVKS 171955Z AUTO 31012KT 10SM CLR 16/M02 A2996 RMK A01
cycle: 20

Station Type Date Time Source
KVKS TAF UTC NOAA

Error!

Example: see airport list